sensor_id;sensor_type;location;lat;lon;timestamp;temperature;humidity
22966;DHT22;11649;48.090;9.754;2023-05-19T00:01:17;11.00;99.90
22966;DHT22;11649;48.090;9.754;2023-05-19T00:03:52;10.90;99.90
22966;DHT22;11649;48.090;9.754;2023-05-19T00:06:24;10.90;99.90
22966;DHT22;11649;48.090;9.754;2023-05-19T00:09:13;10.80;99.90
22966;DHT22;11649;48.090;9.754;2023-05-19T00:11:40;10.80;99.90
22966;DHT22;11649;48.090;9.754;2023-05-19T00:14:08;10.80;99.90
22966;DHT22;11649;48.090;9.754;2023-05-19T00:16:36;10.70;99.90
22966;DHT22;11649;48.090;9.754;2023-05-19T00:19:06;10.70;99.90
22966;DHT22;11649;48.090;9.754;2023-05-19T00:21:36;10.70;99.90
22966;DHT22;11649;48.090;9.754;2023-05-19T00:24:06;10.70;99.90
22966;DHT22;11649;48.090;9.754;2023-05-19T00:26:33;10.80;99.90
22966;DHT22;11649;48.090;9.754;2023-05-19T00:29:00;10.80;99.90
22966;DHT22;11649;48.090;9.754;2023-05-19T00:31:27;10.80;99.90
22966;DHT22;11649;48.090;9.754;2023-05-19T00:33:54;10.80;99.90
22966;DHT22;11649;48.090;9.754;2023-05-19T00:36:21;10.70;99.90
22966;DHT22;11649;48.090;9.754;2023-05-19T00:38:48;10.70;99.90
22966;DHT22;11649;48.090;9.754;2023-05-19T00:41:16;10.70;99.90
22966;DHT22;11649;48.090;9.754;2023-05-19T00:43:43;10.70;99.90
22966;DHT22;11649;48.090;9.754;2023-05-19T00:46:10;10.70;99.90
22966;DHT22;11649;48.090;9.754;2023-05-19T00:48:37;10.60;99.90
22966;DHT22;11649;48.090;9.754;2023-05-19T00:51:04;10.50;99.90
22966;DHT22;11649;48.090;9.754;2023-05-19T00:53:33;10.50;99.90
22966;DHT22;11649;48.090;9.754;2023-05-19T00:56:00;10.50;99.90
22966;DHT22;11649;48.090;9.754;2023-05-19T00:58:29;10.40;99.90
22966;DHT22;11649;48.090;9.754;2023-05-19T01:00:58;10.40;99.90
22966;DHT22;11649;48.090;9.754;2023-05-19T01:03:31;10.30;99.90
22966;DHT22;11649;48.090;9.754;2023-05-19T01:06:01;10.30;99.90
22966;DHT22;11649;48.090;9.754;2023-05-19T01:08:36;10.30;99.90
22966;DHT22;11649;48.090;9.754;2023-05-19T01:11:07;10.30;99.90
22966;DHT22;11649;48.090;9.754;2023-05-19T01:13:34;10.30;99.90
22966;DHT22;11649;48.090;9.754;2023-05-19T01:30:42;10.00;99.90
22966;DHT22;11649;48.090;9.754;2023-05-19T01:33:11;10.10;99.90
22966;DHT22;11649;48.090;9.754;2023-05-19T01:35:42;10.00;99.90
22966;DHT22;11649;48.090;9.754;2023-05-19T01:38:11;10.10;99.90
22966;DHT22;11649;48.090;9.754;2023-05-19T01:40:39;10.00;99.90
22966;DHT22;11649;48.090;9.754;2023-05-19T01:43:09;10.00;99.90
22966;DHT22;11649;48.090;9.754;2023-05-19T01:45:46;10.00;99.90
22966;DHT22;11649;48.090;9.754;2023-05-19T01:48:14;9.90;99.90
22966;DHT22;11649;48.090;9.754;2023-05-19T01:50:41;9.90;99.90
22966;DHT22;11649;48.090;9.754;2023-05-19T01:53:08;9.90;99.90
22966;DHT22;11649;48.090;9.754;2023-05-19T01:55:42;9.90;99.90
22966;DHT22;11649;48.090;9.754;2023-05-19T01:58:40;9.90;99.90
22966;DHT22;11649;48.090;9.754;2023-05-19T02:01:19;9.90;99.90
22966;DHT22;11649;48.090;9.754;2023-05-19T02:04:17;9.80;99.90
22966;DHT22;11649;48.090;9.754;2023-05-19T02:15:05;9.70;99.90
22966;DHT22;11649;48.090;9.754;2023-05-19T02:17:35;9.70;99.90
22966;DHT22;11649;48.090;9.754;2023-05-19T02:20:04;9.70;99.90
22966;DHT22;11649;48.090;9.754;2023-05-19T02:22:32;9.70;99.90
22966;DHT22;11649;48.090;9.754;2023-05-19T02:24:59;9.80;99.90
22966;DHT22;11649;48.090;9.754;2023-05-19T02:27:25;9.80;99.90
22966;DHT22;11649;48.090;9.754;2023-05-19T02:29:52;9.70;99.90
22966;DHT22;11649;48.090;9.754;2023-05-19T02:32:20;9.60;99.90
22966;DHT22;11649;48.090;9.754;2023-05-19T02:34:46;9.60;99.90
22966;DHT22;11649;48.090;9.754;2023-05-19T02:37:14;9.60;99.90
22966;DHT22;11649;48.090;9.754;2023-05-19T02:39:41;9.60;99.90
22966;DHT22;11649;48.090;9.754;2023-05-19T02:42:08;9.60;99.90
22966;DHT22;11649;48.090;9.754;2023-05-19T02:44:35;9.60;99.90
22966;DHT22;11649;48.090;9.754;2023-05-19T02:47:02;9.60;99.90
22966;DHT22;11649;48.090;9.754;2023-05-19T02:49:28;9.60;99.90
22966;DHT22;11649;48.090;9.754;2023-05-19T02:51:56;9.60;99.90
22966;DHT22;11649;48.090;9.754;2023-05-19T02:54:23;9.60;99.90
22966;DHT22;11649;48.090;9.754;2023-05-19T02:56:49;9.60;99.90
22966;DHT22;11649;48.090;9.754;2023-05-19T02:59:16;9.50;99.90
22966;DHT22;11649;48.090;9.754;2023-05-19T03:01:43;9.50;99.90
22966;DHT22;11649;48.090;9.754;2023-05-19T03:04:10;9.50;99.90
22966;DHT22;11649;48.090;9.754;2023-05-19T03:06:36;9.50;99.90
22966;DHT22;11649;48.090;9.754;2023-05-19T03:09:04;9.40;99.90
22966;DHT22;11649;48.090;9.754;2023-05-19T03:11:31;9.40;99.90
22966;DHT22;11649;48.090;9.754;2023-05-19T03:13:58;9.50;99.90
22966;DHT22;11649;48.090;9.754;2023-05-19T03:16:25;9.50;99.90
22966;DHT22;11649;48.090;9.754;2023-05-19T03:18:54;9.50;99.90
22966;DHT22;11649;48.090;9.754;2023-05-19T03:21:21;9.50;99.90
22966;DHT22;11649;48.090;9.754;2023-05-19T03:23:48;9.50;99.90
22966;DHT22;11649;48.090;9.754;2023-05-19T03:26:15;9.50;99.90
22966;DHT22;11649;48.090;9.754;2023-05-19T03:28:41;9.40;99.90
22966;DHT22;11649;48.090;9.754;2023-05-19T03:31:08;9.40;99.90
22966;DHT22;11649;48.090;9.754;2023-05-19T03:33:35;9.40;99.90
22966;DHT22;11649;48.090;9.754;2023-05-19T03:36:02;9.40;99.90
22966;DHT22;11649;48.090;9.754;2023-05-19T03:38:29;9.40;99.90
22966;DHT22;11649;48.090;9.754;2023-05-19T03:40:56;9.50;99.90
22966;DHT22;11649;48.090;9.754;2023-05-19T03:43:23;9.40;99.90
22966;DHT22;11649;48.090;9.754;2023-05-19T03:45:49;9.40;99.90
22966;DHT22;11649;48.090;9.754;2023-05-19T03:48:16;9.40;99.90
22966;DHT22;11649;48.090;9.754;2023-05-19T03:50:46;9.40;99.90
22966;DHT22;11649;48.090;9.754;2023-05-19T03:53:14;9.40;99.90
22966;DHT22;11649;48.090;9.754;2023-05-19T03:55:41;9.30;99.90
22966;DHT22;11649;48.090;9.754;2023-05-19T03:58:07;9.30;99.90
22966;DHT22;11649;48.090;9.754;2023-05-19T04:00:36;9.30;99.90
22966;DHT22;11649;48.090;9.754;2023-05-19T04:03:02;9.30;99.90
22966;DHT22;11649;48.090;9.754;2023-05-19T04:05:30;9.30;99.90
22966;DHT22;11649;48.090;9.754;2023-05-19T04:07:56;9.30;99.90
22966;DHT22;11649;48.090;9.754;2023-05-19T04:10:23;9.40;99.90
22966;DHT22;11649;48.090;9.754;2023-05-19T04:12:50;9.30;99.90
22966;DHT22;11649;48.090;9.754;2023-05-19T04:15:17;9.40;99.90
22966;DHT22;11649;48.090;9.754;2023-05-19T04:20:38;9.40;99.90
22966;DHT22;11649;48.090;9.754;2023-05-19T04:23:05;9.30;99.90
22966;DHT22;11649;48.090;9.754;2023-05-19T04:25:32;9.40;99.90
22966;DHT22;11649;48.090;9.754;2023-05-19T04:27:59;9.40;99.90
22966;DHT22;11649;48.090;9.754;2023-05-19T04:30:26;9.40;99.90
22966;DHT22;11649;48.090;9.754;2023-05-19T04:32:54;9.50;99.90
22966;DHT22;11649;48.090;9.754;2023-05-19T04:35:23;9.50;99.90
22966;DHT22;11649;48.090;9.754;2023-05-19T04:37:50;9.50;99.90
22966;DHT22;11649;48.090;9.754;2023-05-19T04:40:19;9.50;99.90
22966;DHT22;11649;48.090;9.754;2023-05-19T04:42:52;9.50;99.90
22966;DHT22;11649;48.090;9.754;2023-05-19T04:45:19;9.60;99.90
22966;DHT22;11649;48.090;9.754;2023-05-19T04:47:46;9.60;99.90
22966;DHT22;11649;48.090;9.754;2023-05-19T04:50:14;9.60;99.90
22966;DHT22;11649;48.090;9.754;2023-05-19T04:52:42;9.70;99.90
22966;DHT22;11649;48.090;9.754;2023-05-19T04:55:11;9.70;99.90
22966;DHT22;11649;48.090;9.754;2023-05-19T04:57:39;9.70;99.90
22966;DHT22;11649;48.090;9.754;2023-05-19T05:00:07;9.70;99.90
22966;DHT22;11649;48.090;9.754;2023-05-19T05:02:38;9.80;99.90
22966;DHT22;11649;48.090;9.754;2023-05-19T05:05:05;9.80;99.90
22966;DHT22;11649;48.090;9.754;2023-05-19T05:07:32;9.90;99.90
22966;DHT22;11649;48.090;9.754;2023-05-19T05:09:59;9.90;99.90
22966;DHT22;11649;48.090;9.754;2023-05-19T05:12:26;9.90;99.90
22966;DHT22;11649;48.090;9.754;2023-05-19T05:14:53;10.00;99.90
22966;DHT22;11649;48.090;9.754;2023-05-19T05:17:20;9.90;99.90
22966;DHT22;11649;48.090;9.754;2023-05-19T05:19:47;10.00;99.90
22966;DHT22;11649;48.090;9.754;2023-05-19T05:22:14;10.10;99.90
22966;DHT22;11649;48.090;9.754;2023-05-19T05:24:41;10.10;99.90
22966;DHT22;11649;48.090;9.754;2023-05-19T05:27:08;10.10;99.90
22966;DHT22;11649;48.090;9.754;2023-05-19T05:29:35;10.10;99.90
22966;DHT22;11649;48.090;9.754;2023-05-19T05:32:02;10.10;99.90
22966;DHT22;11649;48.090;9.754;2023-05-19T05:34:29;10.10;99.90
22966;DHT22;11649;48.090;9.754;2023-05-19T05:36:56;10.10;99.90
22966;DHT22;11649;48.090;9.754;2023-05-19T05:39:23;10.10;99.90
22966;DHT22;11649;48.090;9.754;2023-05-19T05:41:49;10.10;99.90
22966;DHT22;11649;48.090;9.754;2023-05-19T05:44:16;10.00;99.90
22966;DHT22;11649;48.090;9.754;2023-05-19T05:46:43;10.10;99.90
22966;DHT22;11649;48.090;9.754;2023-05-19T05:49:10;10.10;99.90
22966;DHT22;11649;48.090;9.754;2023-05-19T05:51:39;10.10;99.90
22966;DHT22;11649;48.090;9.754;2023-05-19T05:54:11;10.00;99.90
22966;DHT22;11649;48.090;9.754;2023-05-19T05:56:38;10.10;99.90
22966;DHT22;11649;48.090;9.754;2023-05-19T05:59:06;10.10;99.90
22966;DHT22;11649;48.090;9.754;2023-05-19T06:01:33;10.10;99.90
22966;DHT22;11649;48.090;9.754;2023-05-19T06:04:01;10.20;99.90
22966;DHT22;11649;48.090;9.754;2023-05-19T06:06:28;10.30;99.90
22966;DHT22;11649;48.090;9.754;2023-05-19T06:08:55;10.40;99.90
22966;DHT22;11649;48.090;9.754;2023-05-19T06:11:21;10.40;99.90
22966;DHT22;11649;48.090;9.754;2023-05-19T06:13:48;10.40;99.90
22966;DHT22;11649;48.090;9.754;2023-05-19T06:16:15;10.50;99.90
22966;DHT22;11649;48.090;9.754;2023-05-19T06:18:42;10.60;99.90
22966;DHT22;11649;48.090;9.754;2023-05-19T06:21:09;10.70;99.90
22966;DHT22;11649;48.090;9.754;2023-05-19T06:23:36;10.70;99.90
22966;DHT22;11649;48.090;9.754;2023-05-19T06:26:11;10.70;99.90
22966;DHT22;11649;48.090;9.754;2023-05-19T06:28:38;10.80;99.90
22966;DHT22;11649;48.090;9.754;2023-05-19T06:31:05;10.90;99.90
22966;DHT22;11649;48.090;9.754;2023-05-19T06:33:37;10.90;99.90
22966;DHT22;11649;48.090;9.754;2023-05-19T06:36:07;11.40;99.90
22966;DHT22;11649;48.090;9.754;2023-05-19T06:38:39;10.90;99.90
22966;DHT22;11649;48.090;9.754;2023-05-19T06:41:16;11.00;99.90
22966;DHT22;11649;48.090;9.754;2023-05-19T06:44:33;11.00;99.90
22966;DHT22;11649;48.090;9.754;2023-05-19T06:47:14;11.10;99.90
22966;DHT22;11649;48.090;9.754;2023-05-19T06:49:52;12.10;99.90
22966;DHT22;11649;48.090;9.754;2023-05-19T06:52:25;12.80;99.90
22966;DHT22;11649;48.090;9.754;2023-05-19T06:54:54;11.80;99.90
22966;DHT22;11649;48.090;9.754;2023-05-19T06:57:21;12.30;99.90
22966;DHT22;11649;48.090;9.754;2023-05-19T06:59:48;12.60;99.90
22966;DHT22;11649;48.090;9.754;2023-05-19T07:02:17;11.90;99.90
22966;DHT22;11649;48.090;9.754;2023-05-19T07:04:44;12.00;99.90
22966;DHT22;11649;48.090;9.754;2023-05-19T07:07:11;12.00;99.90
22966;DHT22;11649;48.090;9.754;2023-05-19T07:09:38;13.00;99.90
22966;DHT22;11649;48.090;9.754;2023-05-19T07:12:05;12.10;99.90
22966;DHT22;11649;48.090;9.754;2023-05-19T07:14:32;12.10;99.90
22966;DHT22;11649;48.090;9.754;2023-05-19T07:16:59;12.00;99.90
22966;DHT22;11649;48.090;9.754;2023-05-19T07:19:26;12.60;99.90
22966;DHT22;11649;48.090;9.754;2023-05-19T07:21:52;12.40;99.90
22966;DHT22;11649;48.090;9.754;2023-05-19T07:24:20;11.60;99.90
22966;DHT22;11649;48.090;9.754;2023-05-19T07:26:47;12.30;99.90
22966;DHT22;11649;48.090;9.754;2023-05-19T07:29:14;12.60;99.90
22966;DHT22;11649;48.090;9.754;2023-05-19T07:31:41;13.50;99.90
22966;DHT22;11649;48.090;9.754;2023-05-19T07:34:08;13.30;99.90
22966;DHT22;11649;48.090;9.754;2023-05-19T07:36:35;13.70;99.90
22966;DHT22;11649;48.090;9.754;2023-05-19T07:39:02;13.80;99.90
22966;DHT22;11649;48.090;9.754;2023-05-19T07:41:29;13.10;99.90
22966;DHT22;11649;48.090;9.754;2023-05-19T07:43:56;14.80;99.90
22966;DHT22;11649;48.090;9.754;2023-05-19T07:46:23;13.60;99.90
22966;DHT22;11649;48.090;9.754;2023-05-19T07:48:49;13.20;99.90
22966;DHT22;11649;48.090;9.754;2023-05-19T07:51:16;13.30;99.90
22966;DHT22;11649;48.090;9.754;2023-05-19T07:53:44;13.50;99.90
22966;DHT22;11649;48.090;9.754;2023-05-19T07:56:12;13.80;99.90
22966;DHT22;11649;48.090;9.754;2023-05-19T07:58:39;14.40;99.90
22966;DHT22;11649;48.090;9.754;2023-05-19T08:01:15;13.70;99.90
22966;DHT22;11649;48.090;9.754;2023-05-19T08:03:42;14.70;99.90
22966;DHT22;11649;48.090;9.754;2023-05-19T08:06:09;14.80;99.90
22966;DHT22;11649;48.090;9.754;2023-05-19T08:08:36;14.20;99.90
22966;DHT22;11649;48.090;9.754;2023-05-19T08:11:03;14.30;99.90
22966;DHT22;11649;48.090;9.754;2023-05-19T08:13:30;13.90;99.90
22966;DHT22;11649;48.090;9.754;2023-05-19T08:15:57;15.10;99.90
22966;DHT22;11649;48.090;9.754;2023-05-19T08:18:25;14.50;99.90
22966;DHT22;11649;48.090;9.754;2023-05-19T08:20:52;15.10;99.90
22966;DHT22;11649;48.090;9.754;2023-05-19T08:23:22;13.90;99.90
22966;DHT22;11649;48.090;9.754;2023-05-19T08:25:49;15.20;99.90
22966;DHT22;11649;48.090;9.754;2023-05-19T08:28:16;14.80;99.90
22966;DHT22;11649;48.090;9.754;2023-05-19T08:30:43;14.00;99.90
22966;DHT22;11649;48.090;9.754;2023-05-19T08:33:10;14.00;99.90
22966;DHT22;11649;48.090;9.754;2023-05-19T08:35:37;13.80;99.90
22966;DHT22;11649;48.090;9.754;2023-05-19T08:38:06;13.80;99.90
22966;DHT22;11649;48.090;9.754;2023-05-19T08:40:34;14.50;99.90
22966;DHT22;11649;48.090;9.754;2023-05-19T08:43:02;14.80;98.00
22966;DHT22;11649;48.090;9.754;2023-05-19T08:45:29;14.70;99.90
22966;DHT22;11649;48.090;9.754;2023-05-19T08:47:57;14.20;99.90
22966;DHT22;11649;48.090;9.754;2023-05-19T08:50:29;14.10;99.80
22966;DHT22;11649;48.090;9.754;2023-05-19T08:56:11;14.10;99.70
22966;DHT22;11649;48.090;9.754;2023-05-19T08:58:41;14.20;99.90
22966;DHT22;11649;48.090;9.754;2023-05-19T09:01:13;14.20;99.50
22966;DHT22;11649;48.090;9.754;2023-05-19T09:03:44;14.30;99.70
22966;DHT22;11649;48.090;9.754;2023-05-19T09:06:11;14.20;99.40
22966;DHT22;11649;48.090;9.754;2023-05-19T09:08:39;14.10;99.90
22966;DHT22;11649;48.090;9.754;2023-05-19T09:11:08;13.90;99.00
22966;DHT22;11649;48.090;9.754;2023-05-19T09:13:35;13.80;99.50
22966;DHT22;11649;48.090;9.754;2023-05-19T09:16:02;13.80;99.90
22966;DHT22;11649;48.090;9.754;2023-05-19T09:18:30;13.90;99.90
22966;DHT22;11649;48.090;9.754;2023-05-19T09:20:58;14.30;99.90
22966;DHT22;11649;48.090;9.754;2023-05-19T09:23:27;13.80;98.20
22966;DHT22;11649;48.090;9.754;2023-05-19T09:25:55;14.20;99.70
22966;DHT22;11649;48.090;9.754;2023-05-19T09:28:24;14.80;99.90
22966;DHT22;11649;48.090;9.754;2023-05-19T09:31:04;14.40;99.30
22966;DHT22;11649;48.090;9.754;2023-05-19T09:33:33;13.80;98.70
22966;DHT22;11649;48.090;9.754;2023-05-19T09:36:00;14.30;99.90
22966;DHT22;11649;48.090;9.754;2023-05-19T09:38:28;13.60;99.90
22966;DHT22;11649;48.090;9.754;2023-05-19T09:40:56;14.10;99.90
22966;DHT22;11649;48.090;9.754;2023-05-19T09:43:29;15.40;99.90
22966;DHT22;11649;48.090;9.754;2023-05-19T09:46:04;14.20;99.50
22966;DHT22;11649;48.090;9.754;2023-05-19T09:48:36;14.30;98.70
22966;DHT22;11649;48.090;9.754;2023-05-19T09:51:04;14.30;99.60
22966;DHT22;11649;48.090;9.754;2023-05-19T09:53:33;14.20;97.90
22966;DHT22;11649;48.090;9.754;2023-05-19T09:56:00;15.30;98.20
22966;DHT22;11649;48.090;9.754;2023-05-19T09:58:32;14.20;99.90
22966;DHT22;11649;48.090;9.754;2023-05-19T10:01:02;14.00;99.90
22966;DHT22;11649;48.090;9.754;2023-05-19T10:03:30;13.90;99.90
22966;DHT22;11649;48.090;9.754;2023-05-19T10:06:00;14.40;99.90
22966;DHT22;11649;48.090;9.754;2023-05-19T10:08:28;13.80;99.70
22966;DHT22;11649;48.090;9.754;2023-05-19T10:10:56;14.30;99.90
22966;DHT22;11649;48.090;9.754;2023-05-19T10:13:24;14.60;99.90
22966;DHT22;11649;48.090;9.754;2023-05-19T10:15:52;14.10;99.90
22966;DHT22;11649;48.090;9.754;2023-05-19T10:18:25;13.70;99.90
22966;DHT22;11649;48.090;9.754;2023-05-19T10:20:53;13.80;99.90
22966;DHT22;11649;48.090;9.754;2023-05-19T10:23:20;13.80;99.90
22966;DHT22;11649;48.090;9.754;2023-05-19T10:25:49;13.80;99.90
22966;DHT22;11649;48.090;9.754;2023-05-19T10:28:18;13.90;99.90
22966;DHT22;11649;48.090;9.754;2023-05-19T10:30:53;14.60;99.90
22966;DHT22;11649;48.090;9.754;2023-05-19T10:33:33;14.60;99.60
22966;DHT22;11649;48.090;9.754;2023-05-19T10:36:28;14.40;99.90
22966;DHT22;11649;48.090;9.754;2023-05-19T10:39:00;13.80;98.80
22966;DHT22;11649;48.090;9.754;2023-05-19T10:46:45;13.60;99.90
22966;DHT22;11649;48.090;9.754;2023-05-19T10:49:19;13.50;99.90
22966;DHT22;11649;48.090;9.754;2023-05-19T10:51:47;13.50;99.90
22966;DHT22;11649;48.090;9.754;2023-05-19T10:54:14;13.30;99.90
22966;DHT22;11649;48.090;9.754;2023-05-19T10:56:43;13.30;99.90
22966;DHT22;11649;48.090;9.754;2023-05-19T10:59:33;13.40;99.90
22966;DHT22;11649;48.090;9.754;2023-05-19T11:02:05;13.40;99.90
22966;DHT22;11649;48.090;9.754;2023-05-19T11:04:46;13.30;99.90
22966;DHT22;11649;48.090;9.754;2023-05-19T11:07:17;13.30;99.90
22966;DHT22;11649;48.090;9.754;2023-05-19T11:09:49;13.60;99.90
22966;DHT22;11649;48.090;9.754;2023-05-19T11:12:21;13.40;99.90
22966;DHT22;11649;48.090;9.754;2023-05-19T11:14:54;13.40;99.90
22966;DHT22;11649;48.090;9.754;2023-05-19T11:17:23;13.40;99.90
22966;DHT22;11649;48.090;9.754;2023-05-19T11:19:55;13.30;99.90
22966;DHT22;11649;48.090;9.754;2023-05-19T11:22:24;13.30;99.90
22966;DHT22;11649;48.090;9.754;2023-05-19T11:24:53;13.20;99.90
22966;DHT22;11649;48.090;9.754;2023-05-19T11:27:31;13.20;99.90
22966;DHT22;11649;48.090;9.754;2023-05-19T11:32:34;13.20;99.90
22966;DHT22;11649;48.090;9.754;2023-05-19T11:35:01;13.20;99.90
22966;DHT22;11649;48.090;9.754;2023-05-19T11:40:22;13.10;99.90
22966;DHT22;11649;48.090;9.754;2023-05-19T11:42:49;13.20;99.90
22966;DHT22;11649;48.090;9.754;2023-05-19T11:45:16;13.00;99.90
22966;DHT22;11649;48.090;9.754;2023-05-19T11:47:45;13.00;99.90
22966;DHT22;11649;48.090;9.754;2023-05-19T11:50:27;13.00;99.90
22966;DHT22;11649;48.090;9.754;2023-05-19T11:52:59;13.00;99.90
22966;DHT22;11649;48.090;9.754;2023-05-19T11:55:27;13.10;99.90
22966;DHT22;11649;48.090;9.754;2023-05-19T12:00:37;13.00;99.90
22966;DHT22;11649;48.090;9.754;2023-05-19T12:03:05;13.00;99.90
22966;DHT22;11649;48.090;9.754;2023-05-19T12:05:36;13.10;99.90
22966;DHT22;11649;48.090;9.754;2023-05-19T12:08:08;13.10;99.90
22966;DHT22;11649;48.090;9.754;2023-05-19T12:10:36;12.80;99.90
22966;DHT22;11649;48.090;9.754;2023-05-19T12:13:05;13.10;99.90
22966;DHT22;11649;48.090;9.754;2023-05-19T12:15:34;13.00;99.90
22966;DHT22;11649;48.090;9.754;2023-05-19T12:18:02;13.20;99.90
22966;DHT22;11649;48.090;9.754;2023-05-19T12:20:29;13.20;99.90
22966;DHT22;11649;48.090;9.754;2023-05-19T12:22:59;13.50;99.90
22966;DHT22;11649;48.090;9.754;2023-05-19T12:25:29;13.30;99.90
22966;DHT22;11649;48.090;9.754;2023-05-19T12:27:58;13.40;99.90
22966;DHT22;11649;48.090;9.754;2023-05-19T12:30:27;14.30;99.90
22966;DHT22;11649;48.090;9.754;2023-05-19T12:32:55;13.40;99.90
22966;DHT22;11649;48.090;9.754;2023-05-19T12:35:36;13.40;99.90
22966;DHT22;11649;48.090;9.754;2023-05-19T12:38:06;13.20;99.90
22966;DHT22;11649;48.090;9.754;2023-05-19T12:40:34;13.30;99.90
22966;DHT22;11649;48.090;9.754;2023-05-19T12:43:02;13.40;99.90
22966;DHT22;11649;48.090;9.754;2023-05-19T12:45:33;13.50;99.90
22966;DHT22;11649;48.090;9.754;2023-05-19T12:48:04;13.70;99.90
22966;DHT22;11649;48.090;9.754;2023-05-19T12:50:32;13.80;99.90
22966;DHT22;11649;48.090;9.754;2023-05-19T12:53:02;14.00;99.90
22966;DHT22;11649;48.090;9.754;2023-05-19T12:55:40;14.20;99.90
22966;DHT22;11649;48.090;9.754;2023-05-19T12:58:09;14.20;99.90
22966;DHT22;11649;48.090;9.754;2023-05-19T13:00:44;14.10;99.90
22966;DHT22;11649;48.090;9.754;2023-05-19T13:03:19;14.10;99.90
22966;DHT22;11649;48.090;9.754;2023-05-19T13:05:48;14.10;99.90
22966;DHT22;11649;48.090;9.754;2023-05-19T13:08:17;14.00;99.90
22966;DHT22;11649;48.090;9.754;2023-05-19T13:10:46;13.90;99.90
22966;DHT22;11649;48.090;9.754;2023-05-19T13:13:13;13.80;99.90
22966;DHT22;11649;48.090;9.754;2023-05-19T13:15:48;13.80;99.90
22966;DHT22;11649;48.090;9.754;2023-05-19T13:18:15;13.70;99.90
22966;DHT22;11649;48.090;9.754;2023-05-19T13:20:43;13.80;99.90
22966;DHT22;11649;48.090;9.754;2023-05-19T13:23:11;13.80;99.90
22966;DHT22;11649;48.090;9.754;2023-05-19T13:25:38;13.70;99.90
22966;DHT22;11649;48.090;9.754;2023-05-19T13:28:05;13.40;99.90
22966;DHT22;11649;48.090;9.754;2023-05-19T13:30:36;13.60;99.90
22966;DHT22;11649;48.090;9.754;2023-05-19T13:33:04;13.60;99.90
22966;DHT22;11649;48.090;9.754;2023-05-19T13:35:32;13.80;99.90
22966;DHT22;11649;48.090;9.754;2023-05-19T13:38:05;14.10;99.90
22966;DHT22;11649;48.090;9.754;2023-05-19T13:40:33;13.80;99.90
22966;DHT22;11649;48.090;9.754;2023-05-19T13:43:01;13.80;99.90
22966;DHT22;11649;48.090;9.754;2023-05-19T13:45:29;13.90;99.90
22966;DHT22;11649;48.090;9.754;2023-05-19T13:47:56;13.80;99.90
22966;DHT22;11649;48.090;9.754;2023-05-19T13:50:24;13.40;99.90
22966;DHT22;11649;48.090;9.754;2023-05-19T13:52:56;13.40;99.90
22966;DHT22;11649;48.090;9.754;2023-05-19T13:55:24;13.30;99.90
22966;DHT22;11649;48.090;9.754;2023-05-19T13:57:52;13.40;99.90
22966;DHT22;11649;48.090;9.754;2023-05-19T14:00:19;13.50;99.90
22966;DHT22;11649;48.090;9.754;2023-05-19T14:02:46;13.40;99.90
22966;DHT22;11649;48.090;9.754;2023-05-19T14:05:13;13.50;99.90
22966;DHT22;11649;48.090;9.754;2023-05-19T14:07:40;13.60;99.90
22966;DHT22;11649;48.090;9.754;2023-05-19T14:10:08;13.70;99.90
22966;DHT22;11649;48.090;9.754;2023-05-19T14:12:35;13.70;99.90
22966;DHT22;11649;48.090;9.754;2023-05-19T14:15:22;13.80;99.90
22966;DHT22;11649;48.090;9.754;2023-05-19T14:17:49;13.60;99.90
22966;DHT22;11649;48.090;9.754;2023-05-19T14:20:16;13.40;99.90
22966;DHT22;11649;48.090;9.754;2023-05-19T14:22:43;13.80;99.90
22966;DHT22;11649;48.090;9.754;2023-05-19T14:25:09;13.50;99.90
22966;DHT22;11649;48.090;9.754;2023-05-19T14:27:36;13.70;99.90
22966;DHT22;11649;48.090;9.754;2023-05-19T14:30:06;13.40;99.90
22966;DHT22;11649;48.090;9.754;2023-05-19T14:32:33;13.50;99.90
22966;DHT22;11649;48.090;9.754;2023-05-19T14:35:00;13.40;99.90
22966;DHT22;11649;48.090;9.754;2023-05-19T14:37:27;13.40;99.90
22966;DHT22;11649;48.090;9.754;2023-05-19T14:39:55;13.40;99.90
22966;DHT22;11649;48.090;9.754;2023-05-19T14:42:22;13.40;99.90
22966;DHT22;11649;48.090;9.754;2023-05-19T14:44:49;13.40;99.90
22966;DHT22;11649;48.090;9.754;2023-05-19T14:47:16;13.40;99.90
22966;DHT22;11649;48.090;9.754;2023-05-19T14:49:42;13.40;99.90
22966;DHT22;11649;48.090;9.754;2023-05-19T14:52:09;13.40;99.90
22966;DHT22;11649;48.090;9.754;2023-05-19T14:54:36;13.20;99.90
22966;DHT22;11649;48.090;9.754;2023-05-19T14:57:03;13.40;99.90
22966;DHT22;11649;48.090;9.754;2023-05-19T14:59:30;13.10;99.90
22966;DHT22;11649;48.090;9.754;2023-05-19T15:01:56;13.70;99.90
22966;DHT22;11649;48.090;9.754;2023-05-19T15:04:23;13.00;99.90
22966;DHT22;11649;48.090;9.754;2023-05-19T15:06:50;13.30;99.90
22966;DHT22;11649;48.090;9.754;2023-05-19T15:09:35;13.10;99.90
22966;DHT22;11649;48.090;9.754;2023-05-19T15:12:02;13.10;99.90
22966;DHT22;11649;48.090;9.754;2023-05-19T15:14:29;13.00;99.90
22966;DHT22;11649;48.090;9.754;2023-05-19T15:16:57;13.10;99.90
22966;DHT22;11649;48.090;9.754;2023-05-19T15:19:24;13.10;99.90
22966;DHT22;11649;48.090;9.754;2023-05-19T15:21:51;14.30;99.90
22966;DHT22;11649;48.090;9.754;2023-05-19T15:24:18;13.00;99.90
22966;DHT22;11649;48.090;9.754;2023-05-19T15:26:45;13.20;99.90
22966;DHT22;11649;48.090;9.754;2023-05-19T15:29:12;14.60;99.90
22966;DHT22;11649;48.090;9.754;2023-05-19T15:31:39;13.10;99.90
22966;DHT22;11649;48.090;9.754;2023-05-19T15:34:07;13.70;99.90
22966;DHT22;11649;48.090;9.754;2023-05-19T15:36:41;14.60;99.90
22966;DHT22;11649;48.090;9.754;2023-05-19T15:39:07;13.00;99.90
22966;DHT22;11649;48.090;9.754;2023-05-19T15:41:35;13.00;99.90
22966;DHT22;11649;48.090;9.754;2023-05-19T15:44:02;13.00;99.90
22966;DHT22;11649;48.090;9.754;2023-05-19T15:46:29;13.20;99.90
22966;DHT22;11649;48.090;9.754;2023-05-19T15:48:56;13.20;99.90
22966;DHT22;11649;48.090;9.754;2023-05-19T15:51:23;13.80;99.90
22966;DHT22;11649;48.090;9.754;2023-05-19T15:54:02;13.10;99.90
22966;DHT22;11649;48.090;9.754;2023-05-19T15:56:29;13.00;99.90
22966;DHT22;11649;48.090;9.754;2023-05-19T15:58:55;13.10;99.90
22966;DHT22;11649;48.090;9.754;2023-05-19T16:01:22;13.20;99.90
22966;DHT22;11649;48.090;9.754;2023-05-19T16:03:49;13.20;99.90
22966;DHT22;11649;48.090;9.754;2023-05-19T16:06:16;13.10;99.90
22966;DHT22;11649;48.090;9.754;2023-05-19T16:08:43;13.10;99.90
22966;DHT22;11649;48.090;9.754;2023-05-19T16:11:10;14.50;99.90
22966;DHT22;11649;48.090;9.754;2023-05-19T16:13:41;13.10;99.90
22966;DHT22;11649;48.090;9.754;2023-05-19T16:16:08;13.00;99.90
22966;DHT22;11649;48.090;9.754;2023-05-19T16:18:34;12.90;99.90
22966;DHT22;11649;48.090;9.754;2023-05-19T16:21:01;12.90;99.90
22966;DHT22;11649;48.090;9.754;2023-05-19T16:23:28;12.90;99.90
22966;DHT22;11649;48.090;9.754;2023-05-19T16:25:55;12.90;99.90
22966;DHT22;11649;48.090;9.754;2023-05-19T16:28:23;12.90;99.90